Time;durP1;ratioP1;P1;durP2;ratioP2;P2;SDS_P1;SDS_P2;PMS_P1;PMS_P2;Temp;Humidity;BMP_temperature;BMP_pressure;BME280_temperature;BME280_humidity;BME280_pressure;Samples;Min_cycle;Max_cycle;Signal;HPM_P1;HPM_P2
2022/07/12 00:02:12;;;;;;;2.67;2.47;;;16.30;99.90;;;;;;6268144;28;20049;-74
2022/07/12 00:05:14;;;;;;;3.33;2.33;;;16.30;99.90;;;;;;6249571;28;20093;-74
2022/07/12 00:08:17;;;;;;;3.10;2.80;;;16.30;99.90;;;;;;6247750;28;20124;-74
2022/07/12 00:11:19;;;;;;;3.78;2.50;;;16.30;99.90;;;;;;6254101;28;20072;-74
2022/07/12 00:14:21;;;;;;;3.03;2.20;;;16.30;99.90;;;;;;6270348;28;20049;-74
2022/07/12 00:17:23;;;;;;;2.75;2.55;;;16.20;99.90;;;;;;6293214;28;20049;-74
2022/07/12 00:20:26;;;;;;;2.78;1.95;;;16.20;99.90;;;;;;6293816;28;20049;-74
2022/07/12 00:23:29;;;;;;;2.88;2.50;;;16.20;99.90;;;;;;6255755;28;20184;-74
2022/07/12 00:26:31;;;;;;;3.47;2.83;;;16.30;99.90;;;;;;6250584;28;20053;-74
2022/07/12 00:29:33;;;;;;;4.35;3.40;;;16.30;99.90;;;;;;6276251;28;20057;-74
2022/07/12 00:32:35;;;;;;;3.63;3.33;;;16.30;99.90;;;;;;6274362;28;20575;-74
2022/07/12 00:35:37;;;;;;;4.78;3.35;;;16.20;99.90;;;;;;6274531;28;20484;-74
2022/07/12 00:38:41;;;;;;;4.03;3.65;;;16.20;99.90;;;;;;6275145;28;20049;-74
2022/07/12 00:41:43;;;;;;;5.82;4.20;;;16.30;99.90;;;;;;6298800;28;20056;-75
2022/07/12 00:44:45;;;;;;;4.95;4.45;;;16.30;99.90;;;;;;6250441;28;20058;-75
2022/07/12 00:47:50;;;;;;;4.53;4.13;;;16.30;99.90;;;;;;6248688;28;20049;-75
2022/07/12 00:50:52;;;;;;;4.72;3.90;;;16.20;99.90;;;;;;6257963;28;20060;-74
2022/07/12 00:53:58;;;;;;;5.00;4.50;;;16.20;99.90;;;;;;6275323;28;20052;-75
2022/07/12 00:57:00;;;;;;;5.63;4.07;;;16.20;99.90;;;;;;6258514;28;20120;-74
2022/07/12 01:00:05;;;;;;;5.28;4.50;;;16.20;99.90;;;;;;6261804;28;20053;-76
2022/07/12 01:03:07;;;;;;;3.92;3.63;;;16.20;99.90;;;;;;6271913;28;20125;-76
2022/07/12 01:06:09;;;;;;;5.93;4.30;;;16.20;99.90;;;;;;6248881;28;20049;-75
2022/07/12 01:09:13;;;;;;;4.95;4.47;;;16.20;99.90;;;;;;6249890;28;20057;-75
2022/07/12 01:12:15;;;;;;;6.43;5.82;;;16.20;99.90;;;;;;6250150;28;20081;-75
2022/07/12 01:15:19;;;;;;;7.25;6.55;;;16.20;99.90;;;;;;6248462;28;20057;-75
2022/07/12 01:18:21;;;;;;;7.40;6.70;;;16.20;99.90;;;;;;6286442;28;20060;-75
2022/07/12 01:21:24;;;;;;;7.25;6.55;;;16.20;99.90;;;;;;6274323;28;20515;-75
2022/07/12 01:24:27;;;;;;;8.13;7.32;;;16.20;99.90;;;;;;6273283;28;20509;-75
2022/07/12 01:27:29;;;;;;;5.38;4.60;;;16.20;99.90;;;;;;6272905;28;20056;-75
2022/07/12 01:30:31;;;;;;;7.93;7.13;;;16.20;99.90;;;;;;6273110;28;20052;-75
2022/07/12 01:33:34;;;;;;;9.15;8.32;;;16.20;99.90;;;;;;6263669;28;20050;-75
2022/07/12 01:36:37;;;;;;;8.17;6.90;;;16.10;99.90;;;;;;6272834;28;20076;-75
2022/07/12 01:39:40;;;;;;;10.07;9.07;;;16.10;99.90;;;;;;6274248;28;20052;-75
2022/07/12 01:42:43;;;;;;;10.60;9.60;;;16.10;99.90;;;;;;6288068;28;20053;-75
2022/07/12 01:45:46;;;;;;;10.68;9.18;;;16.10;99.90;;;;;;6272967;28;20044;-75
2022/07/12 01:48:47;;;;;;;11.18;9.43;;;16.10;99.90;;;;;;6271172;28;20112;-75
2022/07/12 01:51:49;;;;;;;14.95;13.40;;;16.10;99.90;;;;;;6249566;28;20052;-75
2022/07/12 01:54:54;;;;;;;10.73;9.73;;;16.10;99.90;;;;;;6248866;28;20069;-75
2022/07/12 01:57:56;;;;;;;12.05;10.85;;;16.10;99.90;;;;;;6282708;28;20509;-75
2022/07/12 02:00:58;;;;;;;14.30;12.88;;;16.20;99.90;;;;;;6273546;28;20045;-75
2022/07/12 02:04:03;;;;;;;12.95;11.70;;;16.20;99.90;;;;;;6263189;28;20053;-75
2022/07/12 02:07:06;;;;;;;14.57;13.15;;;16.30;99.90;;;;;;6256038;28;20072;-75
2022/07/12 02:10:10;;;;;;;8.40;7.70;;;16.30;99.90;;;;;;6272162;28;20107;-75
2022/07/12 02:13:11;;;;;;;10.50;9.50;;;16.30;99.90;;;;;;6272969;28;21022;-76
2022/07/12 02:16:13;;;;;;;8.75;7.95;;;16.40;99.90;;;;;;6305703;28;20409;-75
2022/07/12 02:19:16;;;;;;;14.35;12.93;;;16.50;99.90;;;;;;6304369;28;20407;-75
2022/07/12 02:22:18;;;;;;;15.60;14.00;;;16.50;99.90;;;;;;6273126;28;20059;-75
2022/07/12 02:25:21;;;;;;;15.88;14.27;;;16.50;99.90;;;;;;6253207;28;20399;-75
2022/07/12 02:28:23;;;;;;;16.10;14.43;;;16.50;99.90;;;;;;6269243;28;20413;-75
2022/07/12 02:31:25;;;;;;;12.52;11.30;;;16.50;99.90;;;;;;6272380;28;20395;-76
2022/07/12 02:34:27;;;;;;;16.40;14.68;;;16.40;99.90;;;;;;6270104;28;20049;-75
2022/07/12 02:37:29;;;;;;;16.15;14.48;;;16.50;99.90;;;;;;6263479;28;20056;-75
2022/07/12 02:43:52;;;;;;;16.08;14.38;;;16.50;99.90;;;;;;6263481;28;20050;-75
2022/07/12 02:46:53;;;;;;;15.20;13.63;;;16.40;99.90;;;;;;6286614;28;20060;-75
2022/07/12 02:49:55;;;;;;;16.00;14.30;;;16.30;99.90;;;;;;6270806;28;20052;-75
2022/07/12 02:52:57;;;;;;;15.60;14.00;;;16.30;99.90;;;;;;6268923;28;20057;-75
2022/07/12 02:56:01;;;;;;;14.07;12.70;;;16.30;99.90;;;;;;6260154;28;20049;-75
2022/07/12 02:59:02;;;;;;;16.52;14.88;;;16.40;99.90;;;;;;6265274;28;20482;-75
2022/07/12 03:02:05;;;;;;;16.35;14.63;;;16.30;99.90;;;;;;6296846;28;20060;-74
2022/07/12 03:05:08;;;;;;;16.40;14.70;;;16.30;99.90;;;;;;6257383;28;20107;-75
2022/07/12 03:08:11;;;;;;;15.60;14.00;;;16.20;99.90;;;;;;6277596;28;20041;-76
2022/07/12 03:11:15;;;;;;;12.85;11.10;;;16.10;99.90;;;;;;6262811;28;20049;-75
2022/07/12 03:14:18;;;;;;;16.40;14.73;;;16.10;99.90;;;;;;6269816;28;20450;-75
2022/07/12 03:17:20;;;;;;;11.48;9.23;;;16.10;99.90;;;;;;6274213;28;20051;-75
2022/07/12 03:20:23;;;;;;;14.68;13.27;;;16.10;99.90;;;;;;6270740;28;20497;-75
2022/07/12 03:23:25;;;;;;;13.15;11.77;;;16.10;99.90;;;;;;6272088;28;20048;-75
2022/07/12 03:26:28;;;;;;;15.40;13.80;;;16.10;99.90;;;;;;6273093;28;20045;-75
2022/07/12 03:29:30;;;;;;;14.40;13.00;;;16.20;99.90;;;;;;6296452;28;20055;-75
2022/07/12 03:32:32;;;;;;;14.80;13.30;;;16.30;99.90;;;;;;6269748;28;20049;-75
2022/07/12 03:35:34;;;;;;;14.35;12.95;;;16.30;99.90;;;;;;6286783;28;20049;-75
2022/07/12 03:38:36;;;;;;;10.68;9.52;;;16.30;99.90;;;;;;6271290;28;20135;-75
2022/07/12 03:41:39;;;;;;;14.60;13.20;;;16.40;99.90;;;;;;6270547;28;20049;-75
2022/07/12 03:44:41;;;;;;;14.00;12.70;;;16.50;99.90;;;;;;6271718;28;20140;-75
2022/07/12 03:47:43;;;;;;;13.85;12.40;;;16.40;99.90;;;;;;6267517;28;20052;-75
2022/07/12 03:50:46;;;;;;;14.85;13.35;;;16.40;99.90;;;;;;6247569;28;20147;-75
2022/07/12 03:53:48;;;;;;;16.98;12.23;;;16.30;99.90;;;;;;6268684;28;20072;-75
2022/07/12 04:00:13;;;;;;;14.00;12.70;;;16.20;99.90;;;;;;6271327;28;20131;-75
2022/07/12 04:03:14;;;;;;;;;;;16.40;99.90;;;;;;6260437;28;20041;-75
2022/07/12 04:06:16;;;;;;;14.00;12.65;;;16.40;99.90;;;;;;6271686;28;20282;-76
2022/07/12 04:09:18;;;;;;;14.68;13.18;;;16.40;99.90;;;;;;6268865;28;20426;-75
2022/07/12 04:12:21;;;;;;;12.38;11.15;;;16.40;99.90;;;;;;6269721;28;20060;-75
2022/07/12 04:15:23;;;;;;;15.10;13.57;;;16.40;99.90;;;;;;6269986;28;20071;-75
2022/07/12 04:18:25;;;;;;;15.27;13.68;;;16.40;99.90;;;;;;6269634;28;20505;-75
2022/07/12 04:21:27;;;;;;;15.95;14.35;;;16.30;99.90;;;;;;6266270;28;20053;-76
2022/07/12 04:24:29;;;;;;;16.23;14.52;;;16.30;99.90;;;;;;6251293;28;20045;-75
2022/07/12 04:27:33;;;;;;;19.23;16.02;;;16.30;99.90;;;;;;6259958;28;20048;-75
2022/07/12 04:30:34;;;;;;;;;;;16.30;99.90;;;;;;6269855;28;20052;-75
2022/07/12 04:33:36;;;;;;;18.38;16.58;;;16.20;99.90;;;;;;6265529;28;19927;-75
2022/07/12 04:36:38;;;;;;;8.50;7.72;;;16.20;99.90;;;;;;6269260;28;20053;-76
2022/07/12 04:39:40;;;;;;;18.08;16.30;;;16.20;99.90;;;;;;6263995;28;20046;-75
2022/07/12 04:42:44;;;;;;;16.27;14.75;;;16.30;99.90;;;;;;6245937;28;20057;-76
2022/07/12 04:45:45;;;;;;;18.30;16.40;;;16.30;99.90;;;;;;6261265;28;20066;-76
2022/07/12 04:48:47;;;;;;;17.48;15.77;;;16.40;99.90;;;;;;6260638;28;20045;-76
2022/07/12 04:51:49;;;;;;;8.38;7.68;;;16.40;99.90;;;;;;6270027;28;20052;-75
2022/07/12 04:54:51;;;;;;;17.17;15.45;;;16.40;99.90;;;;;;6270426;28;20045;-75
2022/07/12 04:57:54;;;;;;;12.48;11.35;;;16.60;99.90;;;;;;6254174;28;20049;-75
2022/07/12 05:00:56;;;;;;;7.93;7.32;;;16.60;99.90;;;;;;6264543;28;20048;-75
2022/07/12 05:03:58;;;;;;;9.32;8.43;;;16.60;99.90;;;;;;6259563;28;20497;-75
2022/07/12 05:07:00;;;;;;;13.05;11.75;;;16.60;99.90;;;;;;6273600;28;20060;-75
2022/07/12 05:10:02;;;;;;;13.43;12.02;;;16.70;99.90;;;;;;6273578;28;20057;-75
2022/07/12 05:13:06;;;;;;;12.80;11.60;;;16.60;99.90;;;;;;6273235;28;20053;-75
2022/07/12 05:16:08;;;;;;;10.60;9.60;;;16.60;99.90;;;;;;6274494;28;20053;-75
2022/07/12 05:19:10;;;;;;;9.93;8.93;;;16.60;99.90;;;;;;6272256;28;20044;-75
2022/07/12 05:22:12;;;;;;;8.20;7.50;;;16.70;99.90;;;;;;6274742;28;20474;-75
2022/07/12 05:25:15;;;;;;;12.85;11.55;;;16.80;99.90;;;;;;6254724;28;20049;-75
2022/07/12 05:28:19;;;;;;;13.18;11.88;;;16.90;99.90;;;;;;6268572;28;20041;-75
2022/07/12 05:31:20;;;;;;;11.73;10.52;;;16.90;99.90;;;;;;6254446;28;20491;-76
2022/07/12 05:34:23;;;;;;;12.15;10.93;;;16.80;99.90;;;;;;6271943;28;20049;-75
2022/07/12 05:37:25;;;;;;;11.45;10.32;;;16.80;99.90;;;;;;6289331;28;20083;-75
2022/07/12 05:40:27;;;;;;;10.43;9.50;;;16.80;99.90;;;;;;6287437;28;20504;-76
2022/07/12 05:43:30;;;;;;;9.52;8.63;;;16.90;99.90;;;;;;6272254;28;20041;-75
2022/07/12 05:46:32;;;;;;;11.30;10.30;;;16.90;99.90;;;;;;6267377;28;20470;-75
2022/07/12 05:49:34;;;;;;;9.30;8.40;;;17.00;99.90;;;;;;6258088;28;20053;-75
2022/07/12 05:55:55;;;;;;;14.90;13.45;;;17.00;99.90;;;;;;6305648;28;20438;-80
2022/07/12 05:58:58;;;;;;;43.42;16.17;;;17.20;99.90;;;;;;6266260;28;20056;-74
2022/07/12 06:02:01;;;;;;;12.73;11.48;;;17.20;99.90;;;;;;6263751;28;20045;-77
2022/07/12 06:05:03;;;;;;;13.07;11.77;;;17.10;99.90;;;;;;6264993;28;20045;-78
2022/07/12 06:08:06;;;;;;;8.50;5.35;;;16.90;99.90;;;;;;6280518;28;20390;-84
2022/07/12 06:11:08;;;;;;;16.67;14.88;;;16.90;99.90;;;;;;6265358;28;20486;-81
2022/07/12 06:14:11;;;;;;;8.32;6.38;;;17.00;99.90;;;;;;6289477;28;20053;-79
2022/07/12 06:17:13;;;;;;;14.00;12.38;;;17.10;99.90;;;;;;6269702;28;20052;-79
2022/07/12 06:20:15;;;;;;;13.68;12.32;;;17.20;99.90;;;;;;6271464;28;20509;-79
2022/07/12 06:23:17;;;;;;;16.40;13.25;;;17.20;99.90;;;;;;6254288;28;20057;-79
2022/07/12 06:26:19;;;;;;;12.02;9.75;;;17.20;99.90;;;;;;6298622;28;20049;-79
2022/07/12 06:29:22;;;;;;;15.57;13.07;;;17.10;99.90;;;;;;6271406;28;20528;-79
2022/07/12 06:32:24;;;;;;;;;;;17.20;99.90;;;;;;6248583;28;20055;-79
2022/07/12 06:35:27;;;;;;;7.10;4.55;;;17.50;99.90;;;;;;6247721;28;20362;-79
2022/07/12 06:38:29;;;;;;;6.10;4.18;;;17.70;99.90;;;;;;6259958;28;20057;-79
2022/07/12 06:41:31;;;;;;;7.97;6.85;;;17.80;99.90;;;;;;6247964;28;20068;-79
2022/07/12 06:44:35;;;;;;;6.43;4.50;;;18.10;99.90;;;;;;6254231;28;20154;-79
2022/07/12 06:47:37;;;;;;;5.47;3.10;;;18.40;99.90;;;;;;6271471;28;20045;-80
2022/07/12 06:50:39;;;;;;;8.77;7.53;;;18.60;99.90;;;;;;6272360;28;20049;-79
2022/07/12 06:53:41;;;;;;;8.95;7.20;;;18.90;99.90;;;;;;6271242;28;20052;-80
2022/07/12 06:56:43;;;;;;;8.57;7.55;;;19.10;99.90;;;;;;6259177;28;20487;-79
2022/07/12 06:59:48;;;;;;;10.48;9.48;;;19.10;99.90;;;;;;6261413;28;20041;-83
2022/07/12 07:02:49;;;;;;;7.55;6.07;;;19.10;99.90;;;;;;6263168;28;20545;-77
2022/07/12 07:05:52;;;;;;;8.45;7.63;;;19.20;99.90;;;;;;6271526;28;20053;-78
2022/07/12 07:08:54;;;;;;;10.73;8.70;;;19.20;99.90;;;;;;6280225;28;20135;-78
2022/07/12 07:11:55;;;;;;;10.80;9.75;;;19.30;99.90;;;;;;6260354;28;20129;-76
2022/07/12 07:14:59;;;;;;;7.57;6.80;;;19.20;99.90;;;;;;6269854;28;20079;-77
2022/07/12 07:18:01;;;;;;;4.75;3.20;;;19.30;99.90;;;;;;6264084;28;20125;-80
2022/07/12 07:21:03;;;;;;;6.28;5.68;;;19.50;99.90;;;;;;6296027;28;20087;-79
2022/07/12 07:24:06;;;;;;;6.80;5.63;;;19.70;99.90;;;;;;6283407;28;20041;-79
2022/07/12 07:27:08;;;;;;;6.55;4.60;;;19.80;99.90;;;;;;6270681;28;20064;-79
2022/07/12 07:33:31;;;;;;;4.72;4.28;;;20.20;99.90;;;;;;6248561;28;20048;-80
2022/07/12 07:36:33;;;;;;;11.23;10.13;;;20.50;99.90;;;;;;6270418;28;20117;-79
2022/07/12 07:39:35;;;;;;;11.13;10.13;;;20.70;99.90;;;;;;6304315;28;20048;-80
2022/07/12 07:42:37;;;;;;;11.20;10.20;;;20.80;99.90;;;;;;6294101;28;20487;-79
2022/07/12 07:45:41;;;;;;;5.13;4.63;;;21.10;99.90;;;;;;6271790;28;20049;-79
2022/07/12 07:48:43;;;;;;;13.95;11.50;;;21.20;99.90;;;;;;6267323;28;20139;-79
2022/07/12 07:51:45;;;;;;;7.35;5.63;;;21.30;99.90;;;;;;6269251;28;20413;-80
2022/07/12 07:54:47;;;;;;;11.43;10.50;;;21.30;99.90;;;;;;6270449;28;20053;-78
2022/07/12 07:57:49;;;;;;;4.07;3.55;;;21.50;99.90;;;;;;6266039;28;20059;-80
2022/07/12 08:00:53;;;;;;;4.15;3.75;;;21.70;99.90;;;;;;6261464;28;20064;-80
2022/07/12 08:03:55;;;;;;;3.17;2.88;;;22.00;99.90;;;;;;6269182;28;20049;-79
2022/07/12 08:06:58;;;;;;;9.70;8.80;;;22.30;99.90;;;;;;6267596;28;20041;-78
2022/07/12 08:10:00;;;;;;;7.20;6.50;;;22.60;99.90;;;;;;6269255;28;20051;-79
2022/07/12 08:13:02;;;;;;;5.93;5.28;;;22.70;99.90;;;;;;6269089;28;20056;-79
2022/07/12 08:16:06;;;;;;;2.88;2.28;;;22.80;99.90;;;;;;6286909;28;20409;-79
2022/07/12 08:19:08;;;;;;;8.00;7.28;;;22.80;99.90;;;;;;6269833;28;20040;-79
2022/07/12 08:22:10;;;;;;;7.55;6.88;;;22.80;99.90;;;;;;6258746;28;20057;-79
2022/07/12 08:25:12;;;;;;;4.80;4.38;;;22.80;99.90;;;;;;6269092;28;20061;-80
2022/07/12 08:28:14;;;;;;;3.05;2.60;;;22.80;99.90;;;;;;6268606;28;20540;-79
2022/07/12 08:31:18;;;;;;;9.98;8.13;;;22.90;99.90;;;;;;6245766;28;20572;-79
2022/07/12 08:34:20;;;;;;;8.95;8.07;;;23.10;99.90;;;;;;6256791;28;20049;-80
2022/07/12 08:37:21;;;;;;;7.57;6.80;;;23.10;99.90;;;;;;6271999;28;20079;-79
2022/07/12 08:40:24;;;;;;;4.70;3.00;;;23.20;99.90;;;;;;6265471;28;20057;-79
2022/07/12 08:43:25;;;;;;;3.10;2.80;;;23.20;99.90;;;;;;6249639;28;20182;-79
2022/07/12 08:46:29;;;;;;;7.38;4.85;;;23.20;99.90;;;;;;6264913;28;20497;-79
2022/07/12 08:49:31;;;;;;;6.47;5.63;;;23.10;99.90;;;;;;6249386;28;20050;-79
2022/07/12 08:52:33;;;;;;;6.63;5.68;;;23.10;99.90;;;;;;6249435;28;20395;-80
2022/07/12 08:55:36;;;;;;;3.83;3.08;;;23.10;99.90;;;;;;6249146;28;20057;-80
2022/07/12 08:58:39;;;;;;;2.93;2.20;;;23.10;99.90;;;;;;6266636;28;20501;-79
2022/07/12 09:01:44;;;;;;;;;;;23.10;99.90;;;;;;6250188;28;20057;-79
2022/07/12 09:04:45;;;;;;;2.72;1.98;;;23.10;99.90;;;;;;6275877;28;19925;-79
2022/07/12 09:07:48;;;;;;;2.70;2.17;;;23.00;99.90;;;;;;6271527;28;20049;-79
2022/07/12 09:10:58;;;;;;;2.15;1.95;;;23.00;99.90;;;;;;6274156;28;20497;-79
2022/07/12 09:14:01;;;;;;;3.20;2.30;;;23.00;99.90;;;;;;6271433;28;20045;-79
2022/07/12 09:17:09;;;;;;;5.50;4.68;;;23.10;99.90;;;;;;6272612;28;20138;-79
2022/07/12 09:20:12;;;;;;;4.25;3.85;;;23.10;99.90;;;;;;6272600;28;20513;-79
2022/07/12 09:23:14;;;;;;;4.70;3.95;;;23.20;99.90;;;;;;6272518;28;20068;-78
2022/07/12 09:26:17;;;;;;;2.63;2.08;;;23.20;99.90;;;;;;6271315;28;20048;-79
2022/07/12 09:29:19;;;;;;;2.53;2.33;;;23.30;99.90;;;;;;6254039;28;20054;-82
2022/07/12 09:39:04;;;;;;;5.07;4.57;;;23.20;99.90;;;;;;6260842;28;20053;-79
2022/07/12 09:42:09;;;;;;;3.20;2.75;;;23.30;99.90;;;;;;6258191;28;20058;-82
2022/07/12 09:45:12;;;;;;;2.30;1.70;;;23.30;99.90;;;;;;6263509;28;20099;-83
2022/07/12 09:48:16;;;;;;;4.22;3.08;;;23.20;99.90;;;;;;6267674;28;20057;-81
2022/07/12 09:51:19;;;;;;;2.38;1.98;;;23.20;99.90;;;;;;6274745;28;20056;-81
2022/07/12 09:54:27;;;;;;;2.70;2.35;;;23.30;99.90;;;;;;6271646;28;20049;-80
2022/07/12 09:57:32;;;;;;;4.15;3.75;;;23.30;99.90;;;;;;6250004;28;20056;-82
2022/07/12 10:00:35;;;;;;;4.15;3.85;;;23.30;99.90;;;;;;6259027;28;20045;-76
2022/07/12 10:03:41;;;;;;;2.47;1.98;;;23.30;99.90;;;;;;6259880;28;20187;-77
2022/07/12 10:06:43;;;;;;;2.45;2.25;;;23.30;99.90;;;;;;6248333;28;20049;-78
2022/07/12 10:09:47;;;;;;;2.08;1.73;;;23.40;99.90;;;;;;6247767;28;20495;-83
2022/07/12 10:12:49;;;;;;;1.73;1.63;;;23.40;99.90;;;;;;6270125;28;20064;-80
2022/07/12 10:15:57;;;;;;;2.75;2.55;;;23.50;99.90;;;;;;6271244;28;20490;-79
2022/07/12 10:19:25;;;;;;;2.50;1.77;;;23.50;99.90;;;;;;6271162;28;20536;-80
2022/07/12 10:22:27;;;;;;;4.28;3.88;;;23.60;99.90;;;;;;6264529;28;20055;-79
2022/07/12 10:25:30;;;;;;;3.53;2.13;;;23.60;99.90;;;;;;6272111;28;20056;-79
2022/07/12 10:29:00;;;;;;;3.95;3.65;;;23.70;99.90;;;;;;6270677;28;20049;-80
2022/07/12 10:32:19;;;;;;;2.60;2.40;;;23.70;99.90;;;;;;6270820;28;20494;-79
2022/07/12 10:35:24;;;;;;;2.38;1.95;;;23.80;99.90;;;;;;6270370;28;20053;-81
2022/07/12 10:38:26;;;;;;;2.13;1.95;;;23.80;99.90;;;;;;6272611;28;20047;-81
2022/07/12 10:41:28;;;;;;;4.18;2.30;;;23.80;99.90;;;;;;6284172;28;20637;-77
2022/07/12 10:44:40;;;;;;;1.75;1.52;;;23.80;99.90;;;;;;6261680;28;20052;-80
2022/07/12 10:48:01;;;;;;;2.13;1.92;;;23.80;99.90;;;;;;6245617;28;20046;-78
2022/07/12 10:51:14;;;;;;;3.70;1.63;;;23.80;99.90;;;;;;6249950;28;20068;-81
2022/07/12 10:54:22;;;;;;;2.45;1.45;;;23.90;99.90;;;;;;6261418;28;20181;-82
2022/07/12 10:57:40;;;;;;;1.52;1.42;;;23.90;99.90;;;;;;6246687;28;20411;-80
2022/07/12 11:00:42;;;;;;;1.50;1.40;;;23.90;99.90;;;;;;6260740;28;20442;-80
2022/07/12 11:03:46;;;;;;;2.70;2.15;;;23.90;99.90;;;;;;6271657;28;20047;-73
2022/07/12 11:06:50;;;;;;;12.00;2.08;;;23.90;99.90;;;;;;6283577;28;20060;-76
2022/07/12 11:09:53;;;;;;;5.30;1.80;;;24.00;99.90;;;;;;6246636;28;20052;-75
2022/07/12 11:12:55;;;;;;;13.30;2.17;;;24.00;99.90;;;;;;6262315;28;20056;-77
2022/07/12 11:15:58;;;;;;;5.78;1.80;;;24.00;99.90;;;;;;6270024;28;20068;-75
2022/07/12 11:19:00;;;;;;;3.00;2.63;;;24.10;99.90;;;;;;6270841;28;20056;-78
2022/07/12 11:22:04;;;;;;;4.00;1.90;;;24.10;99.90;;;;;;6267250;28;20045;-76
2022/07/12 11:25:08;;;;;;;3.88;1.98;;;24.00;99.90;;;;;;6263264;28;20049;-75
2022/07/12 11:28:12;;;;;;;2.85;2.17;;;24.00;99.90;;;;;;6255195;28;20041;-76
2022/07/12 11:31:15;;;;;;;5.30;1.83;;;24.00;99.90;;;;;;6296629;28;20056;-80
2022/07/12 11:34:24;;;;;;;2.95;1.63;;;24.00;99.90;;;;;;6271070;28;20048;-79
2022/07/12 11:37:27;;;;;;;3.67;1.60;;;24.10;99.90;;;;;;6271373;28;20501;-76
2022/07/12 11:40:31;;;;;;;2.50;1.60;;;24.10;99.90;;;;;;6273447;28;20067;-76
2022/07/12 11:43:35;;;;;;;2.08;1.55;;;24.10;99.90;;;;;;6268184;28;20057;-77
2022/07/12 11:46:38;;;;;;;3.50;1.60;;;24.10;99.90;;;;;;6249912;28;20049;-77
2022/07/12 11:49:44;;;;;;;1.80;1.40;;;24.20;99.90;;;;;;6257188;28;20075;-75
2022/07/12 11:52:47;;;;;;;1.83;1.48;;;24.20;99.90;;;;;;6269272;28;20479;-76
2022/07/12 11:55:49;;;;;;;;;;;24.20;99.90;;;;;;6269752;28;20049;-76
2022/07/12 11:58:57;;;;;;;3.10;1.40;;;24.20;99.90;;;;;;6266388;28;19929;-77
2022/07/12 12:02:07;;;;;;;3.00;1.60;;;24.20;99.90;;;;;;6261715;28;20053;-75
2022/07/12 12:05:09;;;;;;;1.38;1.02;;;24.20;99.90;;;;;;6245576;28;20053;-75
2022/07/12 12:08:14;;;;;;;1.83;1.40;;;24.20;99.90;;;;;;6260814;28;20529;-75
2022/07/12 12:11:16;;;;;;;1.33;1.10;;;24.20;99.90;;;;;;6282818;28;20057;-77
2022/07/12 12:14:19;;;;;;;1.27;1.10;;;24.20;99.90;;;;;;6250624;28;20049;-74
2022/07/12 12:17:21;;;;;;;2.07;1.37;;;24.20;99.90;;;;;;6249872;28;20053;-76
2022/07/12 12:20:24;;;;;;;2.53;1.30;;;24.20;99.90;;;;;;6268327;28;20041;-74
2022/07/12 12:23:27;;;;;;;1.95;1.20;;;24.30;99.90;;;;;;6268010;28;20056;-74
2022/07/12 12:26:32;;;;;;;1.23;1.10;;;24.40;99.90;;;;;;6250330;28;20490;-75
2022/07/12 12:29:43;;;;;;;1.52;1.15;;;24.50;99.90;;;;;;6260003;28;20136;-75
2022/07/12 12:32:50;;;;;;;2.67;1.17;;;24.50;99.90;;;;;;6272372;28;20059;-75
2022/07/12 12:35:52;;;;;;;1.40;1.13;;;24.40;99.90;;;;;;6268250;28;20045;-75
2022/07/12 12:38:56;;;;;;;1.35;1.25;;;24.40;99.90;;;;;;6261352;28;20060;-75
2022/07/12 12:42:01;;;;;;;1.73;1.30;;;24.20;99.90;;;;;;6271797;28;20652;-74
2022/07/12 12:45:03;;;;;;;1.60;1.10;;;24.20;99.90;;;;;;6259013;28;20052;-75
2022/07/12 12:48:06;;;;;;;2.88;1.10;;;24.30;99.90;;;;;;6275232;28;20049;-75
2022/07/12 12:51:10;;;;;;;1.95;1.02;;;24.50;99.90;;;;;;6273316;28;20102;-75
2022/07/12 12:54:13;;;;;;;1.15;0.95;;;24.60;99.90;;;;;;6266494;28;20053;-78
2022/07/12 12:57:15;;;;;;;1.15;1.08;;;24.60;99.90;;;;;;6273994;28;20045;-76
2022/07/12 13:00:17;;;;;;;0.85;0.80;;;24.60;99.90;;;;;;6273129;28;20052;-76
2022/07/12 13:03:20;;;;;;;1.00;0.90;;;24.50;99.90;;;;;;6273290;28;20057;-75
2022/07/12 13:06:22;;;;;;;1.60;1.25;;;24.30;99.90;;;;;;6273925;28;20494;-78
2022/07/12 13:09:26;;;;;;;1.88;1.13;;;24.20;99.90;;;;;;6269897;28;20053;-77
2022/07/12 13:12:29;;;;;;;1.20;1.00;;;24.20;99.90;;;;;;6271503;28;20048;-77
2022/07/12 13:15:31;;;;;;;1.77;0.90;;;24.10;99.90;;;;;;6267853;28;20498;-75
2022/07/12 13:18:33;;;;;;;1.00;0.85;;;24.10;99.90;;;;;;6272138;28;20044;-76
2022/07/12 13:21:35;;;;;;;1.33;0.95;;;24.20;99.90;;;;;;6267589;28;20134;-76
2022/07/12 13:24:38;;;;;;;1.35;0.85;;;24.30;99.90;;;;;;6263505;28;20049;-75
2022/07/12 13:27:42;;;;;;;1.08;0.90;;;24.30;99.90;;;;;;6264823;28;20064;-74
2022/07/12 13:30:44;;;;;;;1.10;0.88;;;24.30;99.90;;;;;;6254899;28;20052;-76
2022/07/12 13:33:46;;;;;;;1.30;0.80;;;24.20;99.90;;;;;;6266765;28;20144;-75
2022/07/12 13:36:48;;;;;;;0.90;0.90;;;24.30;99.90;;;;;;6273164;28;20053;-76
2022/07/12 13:43:10;;;;;;;1.60;0.93;;;24.30;99.90;;;;;;6253307;28;20053;-75
2022/07/12 13:46:15;;;;;;;2.10;0.70;;;24.30;99.90;;;;;;6282569;28;20045;-74
2022/07/12 13:49:17;;;;;;;0.50;0.50;;;24.20;99.90;;;;;;6269878;28;20106;-74
2022/07/12 13:52:19;;;;;;;2.55;0.70;;;24.00;99.90;;;;;;6277956;28;20175;-74
2022/07/12 13:55:22;;;;;;;1.30;0.80;;;24.00;99.90;;;;;;6271419;28;20084;-75
2022/07/12 13:58:24;;;;;;;0.70;0.70;;;24.00;99.90;;;;;;6265094;28;20044;-75
2022/07/12 14:01:26;;;;;;;0.80;0.70;;;24.00;99.90;;;;;;6266552;28;20413;-76
2022/07/12 14:04:28;;;;;;;1.05;0.75;;;23.90;99.90;;;;;;6267405;28;20410;-74
2022/07/12 14:07:31;;;;;;;0.98;0.80;;;23.90;99.90;;;;;;6264307;28;20057;-77
2022/07/12 14:10:36;;;;;;;1.02;0.80;;;23.80;99.90;;;;;;6272366;28;20429;-73
2022/07/12 14:13:38;;;;;;;9.70;1.02;;;23.80;99.90;;;;;;6272065;28;20056;-77
2022/07/12 14:16:40;;;;;;;6.78;0.90;;;23.90;99.90;;;;;;6265005;28;20052;-74
2022/07/12 14:19:41;;;;;;;5.68;0.75;;;24.00;99.90;;;;;;6267118;28;20413;-74
2022/07/12 14:22:43;;;;;;;5.18;0.93;;;24.00;99.90;;;;;;6272813;28;20055;-74
2022/07/12 14:25:47;;;;;;;2.67;1.00;;;24.00;99.90;;;;;;6301396;28;20060;-75
2022/07/12 14:28:49;;;;;;;1.50;0.77;;;24.00;99.90;;;;;;6264903;28;20064;-75
2022/07/12 14:31:51;;;;;;;2.03;1.00;;;24.00;99.90;;;;;;6249585;28;20103;-75
2022/07/12 14:34:53;;;;;;;1.80;0.90;;;24.00;99.90;;;;;;6262924;28;20138;-74
2022/07/12 14:37:55;;;;;;;1.63;0.82;;;24.00;99.90;;;;;;6255269;28;20045;-75
2022/07/12 14:40:59;;;;;;;2.28;0.80;;;23.90;99.90;;;;;;6272735;28;20049;-74
2022/07/12 14:44:01;;;;;;;2.42;0.80;;;23.90;99.90;;;;;;6274431;28;20041;-74
2022/07/12 14:47:03;;;;;;;1.13;0.80;;;23.90;99.90;;;;;;6271212;28;20045;-74
2022/07/12 14:50:07;;;;;;;3.13;0.80;;;23.90;99.90;;;;;;6272463;28;20041;-74
2022/07/12 14:53:09;;;;;;;2.05;0.77;;;23.90;99.90;;;;;;6271002;28;20103;-74
2022/07/12 14:56:12;;;;;;;3.45;0.68;;;23.90;99.90;;;;;;6272184;28;20420;-75
2022/07/12 14:59:14;;;;;;;2.00;0.90;;;24.00;99.90;;;;;;6269928;28;20159;-75
2022/07/12 15:02:17;;;;;;;2.30;0.80;;;24.00;99.90;;;;;;6271835;28;20123;-74
2022/07/12 15:05:19;;;;;;;1.00;0.80;;;24.00;99.90;;;;;;6270444;28;20048;-74
2022/07/12 15:08:21;;;;;;;1.10;0.50;;;24.10;99.90;;;;;;6268706;28;20056;-75
2022/07/12 15:11:24;;;;;;;0.70;0.50;;;24.10;99.90;;;;;;6266869;28;20162;-75
2022/07/12 15:14:26;;;;;;;0.73;0.60;;;24.10;99.90;;;;;;6247156;28;20132;-75
2022/07/12 15:17:28;;;;;;;1.35;0.55;;;24.00;99.90;;;;;;6251599;28;20052;-74
2022/07/12 15:20:30;;;;;;;0.80;0.63;;;24.10;99.90;;;;;;6269261;28;20374;-74
2022/07/12 15:23:32;;;;;;;2.78;0.68;;;24.00;99.90;;;;;;6271596;28;20425;-74
2022/07/12 15:26:37;;;;;;;0.60;0.60;;;24.00;99.90;;;;;;6259414;28;20052;-74
2022/07/12 15:29:41;;;;;;;0.75;0.68;;;24.00;99.90;;;;;;6268854;28;20057;-74
2022/07/12 15:32:43;;;;;;;1.08;0.75;;;23.90;99.90;;;;;;6269982;28;20053;-75
2022/07/12 15:35:46;;;;;;;1.25;0.70;;;24.00;99.90;;;;;;6271642;28;20146;-75
2022/07/12 15:38:48;;;;;;;1.63;0.68;;;24.00;99.90;;;;;;6270193;28;20048;-75
2022/07/12 15:41:51;;;;;;;1.45;0.70;;;24.00;99.90;;;;;;6270236;28;20190;-74
2022/07/12 15:44:53;;;;;;;;;;;24.00;99.90;;;;;;6248326;28;20052;-75
2022/07/12 15:47:55;;;;;;;0.90;0.60;;;24.00;99.90;;;;;;6286293;28;20320;-74
2022/07/12 15:50:58;;;;;;;1.65;0.70;;;24.00;99.90;;;;;;6271228;28;20057;-74
2022/07/12 15:53:58;;;;;;;1.15;0.70;;;24.00;99.90;;;;;;6269646;28;20053;-74
2022/07/12 15:57:02;;;;;;;1.10;0.60;;;24.00;99.90;;;;;;6302952;28;20068;-75
2022/07/12 16:00:06;;;;;;;0.60;0.60;;;24.00;99.90;;;;;;6258286;28;20052;-75
2022/07/12 16:03:09;;;;;;;1.13;0.77;;;24.00;99.90;;;;;;6278761;28;20132;-74
2022/07/12 16:06:11;;;;;;;0.70;0.50;;;24.00;99.90;;;;;;6246772;28;20041;-74
2022/07/12 16:09:13;;;;;;;1.40;0.80;;;23.90;99.90;;;;;;6269372;28;20410;-75
2022/07/12 16:12:16;;;;;;;1.05;0.90;;;23.90;99.90;;;;;;6261707;28;20049;-75